createdAt,value
2022-08-08T00:00:56.013Z,15.95
2022-08-08T00:00:56.241Z,15.92
2022-08-08T00:02:03.899Z,15.92
2022-08-08T00:02:33.449Z,15.92
2022-08-08T00:03:32.423Z,15.91
2022-08-08T00:04:30.215Z,15.92
2022-08-08T00:05:44.183Z,15.91
2022-08-08T00:06:35.022Z,15.88
2022-08-08T00:07:30.074Z,15.91
2022-08-08T00:08:30.073Z,15.90
2022-08-08T00:09:33.119Z,15.91
2022-08-08T00:10:33.042Z,15.88
2022-08-08T00:11:47.033Z,15.91
2022-08-08T00:12:31.337Z,15.92
2022-08-08T00:14:15.151Z,15.92
2022-08-08T00:14:58.739Z,15.92
2022-08-08T00:15:55.824Z,15.94
2022-08-08T00:16:30.997Z,15.95
2022-08-08T00:17:47.879Z,15.97
2022-08-08T00:18:30.988Z,15.98
2022-08-08T00:19:29.949Z,16.00
2022-08-08T00:20:29.953Z,16.01
2022-08-08T00:21:29.930Z,16.00
2022-08-08T00:22:30.312Z,16.00
2022-08-08T00:23:42.911Z,16.01
2022-08-08T00:24:30.280Z,16.00
2022-08-08T00:25:44.902Z,16.00
2022-08-08T00:26:30.127Z,15.98
2022-08-08T00:27:34.893Z,15.97
2022-08-08T00:28:35.035Z,15.97
2022-08-08T00:29:44.800Z,15.95
2022-08-08T00:30:30.831Z,15.92
2022-08-08T00:32:16.359Z,15.94
2022-08-08T00:32:35.171Z,15.88
2022-08-08T00:34:17.273Z,15.88
2022-08-08T00:34:30.821Z,15.86
2022-08-08T00:35:29.790Z,15.84
2022-08-08T00:36:35.187Z,15.83
2022-08-08T00:37:47.898Z,15.82
2022-08-08T00:38:32.414Z,15.79
2022-08-08T00:41:06.708Z,15.73
2022-08-08T00:41:08.009Z,15.77
2022-08-08T00:41:54.548Z,15.72
2022-08-08T00:42:33.097Z,15.68
2022-08-08T00:43:41.073Z,15.67
2022-08-08T00:44:29.696Z,15.65
2022-08-08T00:45:29.687Z,15.64
2022-08-08T00:46:32.233Z,15.62
2022-08-08T00:47:36.907Z,15.58
2022-08-08T00:48:34.071Z,15.57
2022-08-08T00:49:32.209Z,15.54
2022-08-08T00:50:29.676Z,15.52
2022-08-08T00:51:38.330Z,15.49
2022-08-08T00:52:39.161Z,15.47
2022-08-08T00:53:29.622Z,15.47
2022-08-08T00:54:30.630Z,15.44
2022-08-08T00:55:52.780Z,15.43
2022-08-08T00:56:30.588Z,15.44
2022-08-08T00:57:34.506Z,15.42
2022-08-08T00:58:30.816Z,15.39
2022-08-08T00:59:43.126Z,15.36
2022-08-08T01:00:32.164Z,15.37
2022-08-08T01:01:38.227Z,15.35
2022-08-08T01:03:16.085Z,15.36
2022-08-08T01:03:59.311Z,15.33
2022-08-08T01:04:30.557Z,15.33
2022-08-08T01:05:58.483Z,15.33
2022-08-08T01:06:30.469Z,15.33
2022-08-08T01:07:34.478Z,15.31
2022-08-08T01:08:30.444Z,15.29
2022-08-08T01:09:36.818Z,15.27
2022-08-08T01:10:32.413Z,15.25
2022-08-08T01:11:29.435Z,15.25
2022-08-08T01:12:30.298Z,15.25
2022-08-08T01:13:43.377Z,15.28
2022-08-08T01:14:54.690Z,15.27
2022-08-08T01:15:43.663Z,15.27
2022-08-08T01:16:30.375Z,15.25
2022-08-08T01:17:52.169Z,15.24
2022-08-08T01:18:52.972Z,15.22
2022-08-08T01:19:52.515Z,15.21
2022-08-08T01:20:30.315Z,15.19
2022-08-08T01:22:01.702Z,15.18
2022-08-08T01:22:35.082Z,15.19
2022-08-08T01:24:06.377Z,15.21
2022-08-08T01:24:30.303Z,15.21
2022-08-08T01:25:40.123Z,15.19
2022-08-08T01:26:29.274Z,15.18
2022-08-08T01:27:33.097Z,15.14
2022-08-08T01:28:29.518Z,15.11
2022-08-08T01:29:35.608Z,15.10
2022-08-08T01:30:31.309Z,15.10
2022-08-08T01:32:06.417Z,15.10
2022-08-08T01:32:30.542Z,15.07
2022-08-08T01:33:33.832Z,15.03
2022-08-08T01:34:29.307Z,15.02
2022-08-08T01:35:30.474Z,15.03
2022-08-08T01:36:29.152Z,15.02
2022-08-08T01:37:57.398Z,15.00
2022-08-08T01:38:30.143Z,15.00
2022-08-08T01:39:34.638Z,15.00
2022-08-08T01:40:32.110Z,14.97
2022-08-08T01:41:34.427Z,14.94
2022-08-08T01:42:35.639Z,14.92
2022-08-08T01:43:34.787Z,14.91
2022-08-08T01:44:29.082Z,14.89
2022-08-08T01:45:29.075Z,14.89
2022-08-08T01:46:29.057Z,14.88
2022-08-08T01:48:14.472Z,14.89
2022-08-08T01:48:31.321Z,14.86
2022-08-08T01:49:37.407Z,14.86
2022-08-08T01:50:33.991Z,14.88
2022-08-08T01:51:29.784Z,14.85
2022-08-08T01:53:29.203Z,14.85
2022-08-08T01:55:16.669Z,14.84
2022-08-08T01:55:26.924Z,14.81
2022-08-08T01:56:29.408Z,14.82
2022-08-08T01:56:34.518Z,14.84
2022-08-08T01:57:33.803Z,14.82
2022-08-08T01:58:38.606Z,14.79
2022-08-08T01:59:38.149Z,14.77
2022-08-08T02:00:29.898Z,14.73
2022-08-08T02:01:54.830Z,14.70
2022-08-08T02:02:34.498Z,14.69
2022-08-08T02:03:56.090Z,14.68
2022-08-08T02:04:29.861Z,14.65
2022-08-08T02:05:33.821Z,14.66
2022-08-08T02:06:33.019Z,14.65
2022-08-08T02:07:41.824Z,14.65
2022-08-08T02:08:34.086Z,14.65
2022-08-08T02:10:01.592Z,14.62
2022-08-08T02:10:37.244Z,14.63
2022-08-08T02:11:59.882Z,14.63
2022-08-08T02:12:30.115Z,14.62
2022-08-08T02:13:54.033Z,14.60
2022-08-08T02:14:29.772Z,14.62
2022-08-08T02:15:28.742Z,14.60
2022-08-08T02:16:28.732Z,14.59
2022-08-08T02:17:36.574Z,14.60
2022-08-08T02:18:28.722Z,14.60
2022-08-08T02:19:57.442Z,14.59
2022-08-08T02:21:01.590Z,14.58
2022-08-08T02:21:29.693Z,14.55
2022-08-08T02:22:31.622Z,14.58
2022-08-08T02:23:32.114Z,14.54
2022-08-08T02:24:28.668Z,14.53
2022-08-08T02:25:43.640Z,14.51
2022-08-08T02:26:29.670Z,14.47
2022-08-08T02:27:28.624Z,14.45
2022-08-08T02:28:35.296Z,14.45
2022-08-08T02:29:41.594Z,14.44
2022-08-08T02:30:29.639Z,14.44
2022-08-08T02:31:58.987Z,14.41
2022-08-08T02:32:29.565Z,14.40
2022-08-08T02:34:00.458Z,14.40
2022-08-08T02:34:33.312Z,14.35
2022-08-08T02:35:28.531Z,14.35
2022-08-08T02:36:29.528Z,14.33
2022-08-08T02:37:52.632Z,14.33
2022-08-08T02:38:30.250Z,14.30
2022-08-08T02:39:41.963Z,14.30
2022-08-08T02:40:31.538Z,14.26
2022-08-08T02:42:04.333Z,14.26
2022-08-08T02:42:38.092Z,14.25
2022-08-08T02:44:38.151Z,14.26
2022-08-08T02:44:43.211Z,14.25
2022-08-08T02:45:29.427Z,14.25
2022-08-08T02:46:29.419Z,14.23
2022-08-08T02:47:28.412Z,14.23
2022-08-08T02:48:28.409Z,14.25
2022-08-08T02:49:47.947Z,14.20
2022-08-08T02:50:29.384Z,14.23
2022-08-08T02:51:30.461Z,14.22
2022-08-08T02:52:42.653Z,14.23
2022-08-08T02:53:28.351Z,14.23
2022-08-08T02:54:28.343Z,14.22
2022-08-08T02:55:37.131Z,14.20
2022-08-08T02:56:28.334Z,14.22
2022-08-08T02:57:29.376Z,14.18
2022-08-08T02:58:29.307Z,14.18
2022-08-08T02:59:37.228Z,14.20
2022-08-08T03:00:31.592Z,14.22
2022-08-08T03:01:32.558Z,14.20
2022-08-08T03:02:30.346Z,14.18
2022-08-08T03:05:00.656Z,14.20
2022-08-08T03:05:04.855Z,14.18
2022-08-08T03:05:32.892Z,14.17
2022-08-08T03:06:34.889Z,14.15
2022-08-08T03:07:41.584Z,14.17
2022-08-08T03:08:28.197Z,14.15
2022-08-08T03:09:28.707Z,14.15
2022-08-08T03:10:33.658Z,14.17
2022-08-08T03:11:48.131Z,14.17
2022-08-08T03:12:36.726Z,14.14
2022-08-08T03:15:54.193Z,14.15
2022-08-08T03:15:57.990Z,14.10
2022-08-08T03:16:03.870Z,14.07
2022-08-08T03:16:35.834Z,14.07
2022-08-08T03:17:39.617Z,14.05
2022-08-08T03:18:31.091Z,14.03
2022-08-08T03:19:28.101Z,14.04
2022-08-08T03:20:28.098Z,14.03
2022-08-08T03:21:54.485Z,14.03
2022-08-08T03:22:38.047Z,14.03
2022-08-08T03:23:30.271Z,14.03
2022-08-08T03:24:29.161Z,13.99
2022-08-08T03:25:34.129Z,14.00
2022-08-08T03:26:30.545Z,14.00
2022-08-08T03:27:28.999Z,13.97
2022-08-08T03:28:27.991Z,13.97
2022-08-08T03:29:56.536Z,13.97
2022-08-08T03:30:28.996Z,13.95
2022-08-08T03:31:27.958Z,13.95
2022-08-08T03:32:30.652Z,13.92
2022-08-08T03:33:55.430Z,13.90
2022-08-08T03:34:28.953Z,13.92
2022-08-08T03:35:30.177Z,13.92
2022-08-08T03:36:30.418Z,13.90
2022-08-08T03:38:00.031Z,13.89
2022-08-08T03:38:57.942Z,13.89
2022-08-08T03:39:28.859Z,13.86
2022-08-08T03:40:32.114Z,13.87
2022-08-08T03:42:12.710Z,13.87
2022-08-08T03:42:30.111Z,13.89
2022-08-08T03:43:38.221Z,13.89
2022-08-08T03:44:27.766Z,13.89
2022-08-08T03:46:06.680Z,13.89
2022-08-08T03:46:32.515Z,13.87
2022-08-08T03:47:39.427Z,13.86
2022-08-08T03:49:09.149Z,13.87
2022-08-08T03:49:58.607Z,13.87
2022-08-08T03:50:28.718Z,13.85
2022-08-08T03:51:50.265Z,13.83
2022-08-08T03:52:28.960Z,13.85
2022-08-08T03:53:42.443Z,13.83
2022-08-08T03:54:41.759Z,13.83
2022-08-08T03:55:56.448Z,13.83
2022-08-08T03:56:31.753Z,13.79
2022-08-08T03:58:34.736Z,13.79
2022-08-08T03:58:34.999Z,13.79
2022-08-08T03:59:27.617Z,13.78
2022-08-08T04:00:27.592Z,13.79
2022-08-08T04:01:30.562Z,13.78
2022-08-08T04:02:32.781Z,13.77
2022-08-08T04:03:57.787Z,13.74
2022-08-08T04:04:31.161Z,13.71
2022-08-08T04:05:28.892Z,13.70
2022-08-08T04:06:29.301Z,13.70
2022-08-08T04:07:27.533Z,13.67
2022-08-08T04:08:33.300Z,13.68
2022-08-08T04:09:27.504Z,13.67
2022-08-08T04:10:32.336Z,13.67
2022-08-08T04:11:27.506Z,13.68
2022-08-08T04:12:28.597Z,13.68
2022-08-08T04:13:27.474Z,13.68
2022-08-08T04:14:33.805Z,13.68
2022-08-08T04:15:38.433Z,13.67
2022-08-08T04:16:40.111Z,13.70
2022-08-08T04:17:57.786Z,13.67
2022-08-08T04:18:28.412Z,13.70
2022-08-08T04:19:28.397Z,13.67
2022-08-08T04:20:28.618Z,13.65
2022-08-08T04:21:27.379Z,13.63
2022-08-08T04:22:29.831Z,13.63
2022-08-08T04:24:00.416Z,13.60
2022-08-08T04:24:31.233Z,13.56
2022-08-08T04:25:32.971Z,13.54
2022-08-08T04:26:27.338Z,13.53
2022-08-08T04:28:01.862Z,13.52
2022-08-08T04:28:40.534Z,13.52
2022-08-08T04:29:27.378Z,13.52
2022-08-08T04:30:27.290Z,13.52
2022-08-08T04:31:56.722Z,13.53
2022-08-08T04:32:40.867Z,13.53
2022-08-08T04:33:27.251Z,13.53
2022-08-08T04:34:43.016Z,13.52
2022-08-08T04:35:29.441Z,13.54
2022-08-08T04:36:27.240Z,13.54
2022-08-08T04:37:31.924Z,13.53
2022-08-08T04:38:27.393Z,13.53
2022-08-08T04:40:03.905Z,13.53
2022-08-08T04:40:31.208Z,13.54
2022-08-08T04:41:27.238Z,13.54
2022-08-08T04:42:27.221Z,13.53
2022-08-08T04:43:31.821Z,13.54
2022-08-08T04:44:28.145Z,13.54
2022-08-08T04:45:27.138Z,13.53
2022-08-08T04:46:27.121Z,13.52
2022-08-08T04:47:27.105Z,13.54
2022-08-08T04:48:27.101Z,13.53
2022-08-08T04:49:28.944Z,13.52
2022-08-08T04:50:34.284Z,13.53
2022-08-08T04:51:48.343Z,13.52
2022-08-08T04:52:33.736Z,13.52
2022-08-08T04:54:27.603Z,13.49
2022-08-08T04:54:41.786Z,13.50
2022-08-08T04:55:47.132Z,13.50
2022-08-08T04:56:28.028Z,13.52
2022-08-08T04:57:27.008Z,13.52
2022-08-08T04:58:26.990Z,13.54
2022-08-08T04:59:30.089Z,13.54
2022-08-08T05:00:27.981Z,13.56
2022-08-08T05:01:27.021Z,13.59
2022-08-08T05:02:28.656Z,13.62
2022-08-08T05:04:07.492Z,13.67
2022-08-08T05:04:27.953Z,13.68
2022-08-08T05:05:44.187Z,13.70
2022-08-08T05:06:29.285Z,13.71
2022-08-08T05:07:26.910Z,13.74
2022-08-08T05:08:28.792Z,13.72
2022-08-08T05:09:26.901Z,13.74
2022-08-08T05:10:29.864Z,13.78
2022-08-08T05:11:26.872Z,13.79
2022-08-08T05:12:29.536Z,13.79
2022-08-08T05:13:26.842Z,13.83
2022-08-08T05:14:26.860Z,13.83
2022-08-08T05:16:47.930Z,13.83
2022-08-08T05:16:53.747Z,13.86
2022-08-08T05:17:27.792Z,13.86
2022-08-08T05:18:27.791Z,13.87
2022-08-08T05:20:11.423Z,13.86
2022-08-08T05:20:27.764Z,13.87
2022-08-08T05:21:26.754Z,13.87
2022-08-08T05:22:28.000Z,13.90
2022-08-08T05:23:26.737Z,13.89
2022-08-08T05:24:27.749Z,13.93
2022-08-08T05:25:41.332Z,13.95
2022-08-08T05:26:27.526Z,13.97
2022-08-08T05:27:26.698Z,14.00
2022-08-08T05:28:41.498Z,14.04
2022-08-08T05:29:29.113Z,14.07
2022-08-08T05:30:28.075Z,14.10
2022-08-08T05:32:04.690Z,14.10
2022-08-08T05:32:29.998Z,14.14
2022-08-08T05:33:26.639Z,14.15
2022-08-08T05:34:27.621Z,14.18
2022-08-08T05:35:26.619Z,14.23
2022-08-08T05:36:28.192Z,14.26
2022-08-08T05:37:28.342Z,14.28
2022-08-08T05:38:31.778Z,14.29
2022-08-08T05:39:28.606Z,14.33
2022-08-08T05:40:29.593Z,14.33
2022-08-08T05:41:27.982Z,14.36
2022-08-08T05:42:26.578Z,14.37
2022-08-08T05:43:39.561Z,14.43
2022-08-08T05:44:31.254Z,14.45
2022-08-08T05:45:41.375Z,14.51
2022-08-08T05:46:27.501Z,14.53
2022-08-08T05:47:26.495Z,14.58
2022-08-08T05:48:28.725Z,14.59
2022-08-08T05:49:26.686Z,14.60
2022-08-08T05:50:26.461Z,14.63
2022-08-08T05:51:26.449Z,14.66
2022-08-08T05:52:35.544Z,14.69
2022-08-08T05:53:56.290Z,14.73
2022-08-08T05:54:50.337Z,14.78
2022-08-08T05:55:30.402Z,14.78
2022-08-08T05:56:27.415Z,14.81
2022-08-08T05:58:05.761Z,14.84
2022-08-08T05:58:31.626Z,14.86
2022-08-08T05:59:59.464Z,14.88
2022-08-08T06:00:27.500Z,14.89
2022-08-08T06:01:51.127Z,14.92
2022-08-08T06:02:27.326Z,14.94
2022-08-08T06:03:29.486Z,14.94
2022-08-08T06:04:26.611Z,14.96
2022-08-08T06:05:35.367Z,14.99
2022-08-08T06:06:32.636Z,15.00
2022-08-08T06:07:27.823Z,15.07
2022-08-08T06:08:28.266Z,15.11
2022-08-08T06:09:58.331Z,15.14
2022-08-08T06:10:30.237Z,15.15
2022-08-08T06:11:28.231Z,15.18
2022-08-08T06:12:30.872Z,15.21
2022-08-08T06:13:26.224Z,15.24
2022-08-08T06:14:27.201Z,15.29
2022-08-08T06:15:31.455Z,15.35
2022-08-08T06:16:30.356Z,15.37
2022-08-08T06:17:31.970Z,15.43
2022-08-08T06:18:27.603Z,15.51
2022-08-08T06:19:27.423Z,15.58
2022-08-08T06:20:26.264Z,15.65
2022-08-08T06:21:33.336Z,15.75
2022-08-08T06:22:35.411Z,15.80
2022-08-08T06:23:39.729Z,15.88
2022-08-08T06:24:30.408Z,16.01
2022-08-08T06:26:36.233Z,16.04
2022-08-08T06:26:38.998Z,16.09
2022-08-08T06:27:27.164Z,16.15
2022-08-08T06:28:29.081Z,16.21
2022-08-08T06:29:56.904Z,16.29
2022-08-08T06:30:28.475Z,16.36
2022-08-08T06:31:32.214Z,16.42
2022-08-08T06:32:27.026Z,16.49
2022-08-08T06:33:36.630Z,16.54
2022-08-08T06:34:28.381Z,16.58
2022-08-08T06:36:07.094Z,16.60
2022-08-08T06:36:27.002Z,16.64
2022-08-08T06:37:25.965Z,16.66
2022-08-08T06:38:28.706Z,16.68
2022-08-08T06:39:25.995Z,16.72
2022-08-08T06:40:29.209Z,16.74
2022-08-08T06:41:25.958Z,16.76
2022-08-08T06:42:26.336Z,16.78
2022-08-08T06:43:30.552Z,16.83
2022-08-08T06:44:25.891Z,16.86
2022-08-08T06:45:25.876Z,16.89
2022-08-08T06:46:25.872Z,16.91
2022-08-08T06:47:31.608Z,16.93
2022-08-08T06:48:27.402Z,16.93
2022-08-08T06:49:55.031Z,16.94
2022-08-08T06:50:32.359Z,16.99
2022-08-08T06:51:45.837Z,16.97
2022-08-08T06:52:27.873Z,17.01
2022-08-08T06:53:25.801Z,17.12
2022-08-08T06:54:25.789Z,17.42
2022-08-08T06:55:28.780Z,17.80
2022-08-08T06:56:26.288Z,18.13
2022-08-08T06:57:25.789Z,18.43
2022-08-08T06:58:30.924Z,18.68
2022-08-08T06:59:25.733Z,18.90
2022-08-08T07:00:30.335Z,19.09
2022-08-08T07:02:16.697Z,19.26
2022-08-08T07:02:29.386Z,19.44
2022-08-08T07:03:52.459Z,19.63
2022-08-08T07:04:41.375Z,19.73
2022-08-08T07:05:30.125Z,19.89
2022-08-08T07:06:26.931Z,20.07
2022-08-08T07:07:25.655Z,20.25
2022-08-08T07:08:26.735Z,20.48
2022-08-08T07:09:27.072Z,20.66
2022-08-08T07:10:29.635Z,20.87
2022-08-08T07:11:25.629Z,21.12
2022-08-08T07:12:30.488Z,21.24
2022-08-08T07:13:25.661Z,21.33
2022-08-08T07:14:25.587Z,21.54
2022-08-08T07:15:41.046Z,21.75
2022-08-08T07:16:28.934Z,21.79
2022-08-08T07:17:40.262Z,21.96
2022-08-08T07:18:35.467Z,22.10
2022-08-08T07:19:25.568Z,22.23
2022-08-08T07:20:27.995Z,22.39
2022-08-08T07:21:25.511Z,22.59
2022-08-08T07:22:25.503Z,22.69
2022-08-08T07:23:25.495Z,22.93
2022-08-08T07:24:26.943Z,23.12
2022-08-08T07:25:31.828Z,23.25
2022-08-08T07:26:32.894Z,23.37
2022-08-08T07:27:35.272Z,23.46
2022-08-08T07:28:31.547Z,23.59
2022-08-08T07:29:59.031Z,23.65
2022-08-08T07:30:26.604Z,23.68
2022-08-08T07:31:25.422Z,23.71
2022-08-08T07:32:25.684Z,23.88
2022-08-08T07:33:25.395Z,24.01
2022-08-08T07:34:31.425Z,24.10
2022-08-08T07:35:25.378Z,24.21
2022-08-08T07:36:25.392Z,24.36
2022-08-08T07:37:25.346Z,24.50
2022-08-08T07:38:26.341Z,24.54
2022-08-08T07:39:29.379Z,24.63
2022-08-08T07:40:32.507Z,24.66
2022-08-08T07:41:25.460Z,24.86
2022-08-08T07:42:32.940Z,24.93
2022-08-08T07:43:37.291Z,24.86
2022-08-08T07:44:40.586Z,24.78
2022-08-08T07:45:26.390Z,24.51
2022-08-08T07:46:30.627Z,24.54
2022-08-08T07:47:38.905Z,24.65
2022-08-08T07:48:25.244Z,24.80
2022-08-08T07:49:25.218Z,24.86
2022-08-08T07:50:25.356Z,25.04
2022-08-08T07:51:45.174Z,25.13
2022-08-08T07:52:27.062Z,25.14
2022-08-08T07:54:01.593Z,25.03
2022-08-08T07:54:27.433Z,24.84
2022-08-08T07:55:28.723Z,24.74
2022-08-08T07:56:36.076Z,24.76
2022-08-08T07:57:25.684Z,24.96
2022-08-08T07:58:26.123Z,25.25
2022-08-08T07:59:25.112Z,25.25
2022-08-08T08:00:26.102Z,25.47
2022-08-08T08:01:26.934Z,25.72
2022-08-08T08:02:35.000Z,25.75
2022-08-08T08:03:28.283Z,25.88
2022-08-08T08:04:26.073Z,25.90
2022-08-08T08:05:26.329Z,25.87
2022-08-08T08:06:27.144Z,25.70
2022-08-08T08:07:31.660Z,25.44
2022-08-08T08:08:25.023Z,25.47
2022-08-08T08:09:26.457Z,25.63
2022-08-08T08:10:30.700Z,25.68
2022-08-08T08:11:34.004Z,25.80
2022-08-08T08:12:35.300Z,26.00
2022-08-08T08:13:42.656Z,25.99
2022-08-08T08:14:25.971Z,26.05
2022-08-08T08:15:24.959Z,26.16
2022-08-08T08:16:24.942Z,26.22
2022-08-08T08:17:25.018Z,26.31
2022-08-08T08:18:31.796Z,26.44
2022-08-08T08:19:25.995Z,26.45
2022-08-08T08:20:30.223Z,26.06
2022-08-08T08:21:43.995Z,25.85
2022-08-08T08:22:33.587Z,25.99
2022-08-08T08:23:27.707Z,25.93
2022-08-08T08:24:30.579Z,26.05
2022-08-08T08:25:40.995Z,26.21
2022-08-08T08:26:27.696Z,26.38
2022-08-08T08:27:24.822Z,26.62
2022-08-08T08:28:24.816Z,26.80
2022-08-08T08:29:27.768Z,27.05
2022-08-08T08:30:26.464Z,27.15
2022-08-08T08:31:24.782Z,27.20
2022-08-08T08:32:35.986Z,27.15
2022-08-08T08:33:24.799Z,27.14
2022-08-08T08:34:24.753Z,27.08
2022-08-08T08:35:30.060Z,26.90
2022-08-08T08:36:25.730Z,26.75
2022-08-08T08:37:29.761Z,26.52
2022-08-08T08:38:25.911Z,26.48
2022-08-08T08:39:24.742Z,26.48
2022-08-08T08:40:28.753Z,26.55
2022-08-08T08:41:24.964Z,26.52
2022-08-08T08:42:31.777Z,26.53
2022-08-08T08:43:28.909Z,26.25
2022-08-08T08:44:24.641Z,26.22
2022-08-08T08:45:26.408Z,26.28
2022-08-08T08:46:26.002Z,26.44
2022-08-08T08:47:24.628Z,26.71
2022-08-08T08:48:25.607Z,27.00
2022-08-08T08:49:25.649Z,26.93
2022-08-08T08:50:33.632Z,26.80
2022-08-08T08:51:24.582Z,26.66
2022-08-08T08:52:24.552Z,26.73
2022-08-08T08:53:54.743Z,26.77
2022-08-08T08:54:25.714Z,27.00
2022-08-08T08:55:28.569Z,27.11
2022-08-08T08:56:25.534Z,27.00
2022-08-08T08:57:24.509Z,27.07
2022-08-08T08:58:24.498Z,27.11
2022-08-08T08:59:59.034Z,27.15
2022-08-08T09:00:25.479Z,26.99
2022-08-08T09:01:25.499Z,26.92
2022-08-08T09:02:24.468Z,26.85
2022-08-08T09:03:24.442Z,26.81
2022-08-08T09:04:31.845Z,26.90
2022-08-08T09:05:49.206Z,26.92
2022-08-08T09:06:28.723Z,26.74
2022-08-08T09:07:24.433Z,26.84
2022-08-08T09:08:25.389Z,26.95
2022-08-08T09:09:35.246Z,27.05
2022-08-08T09:10:29.092Z,26.92
2022-08-08T09:11:24.372Z,26.68
2022-08-08T09:12:24.361Z,26.36
2022-08-08T09:13:24.354Z,26.31
2022-08-08T09:14:25.898Z,26.38
2022-08-08T09:15:40.915Z,26.63
2022-08-08T09:16:24.312Z,26.85
2022-08-08T09:17:41.237Z,27.07
2022-08-08T09:18:25.341Z,27.17
2022-08-08T09:21:59.391Z,27.00
2022-08-08T09:22:02.132Z,27.08
2022-08-08T09:22:04.774Z,27.21
2022-08-08T09:22:26.608Z,27.18
2022-08-08T09:23:25.759Z,27.25
2022-08-08T09:24:24.261Z,27.14
2022-08-08T09:25:36.084Z,27.21
2022-08-08T09:26:25.217Z,27.21
2022-08-08T09:27:55.985Z,26.90
2022-08-08T09:28:35.626Z,26.85
2022-08-08T09:29:24.469Z,26.92
2022-08-08T09:30:24.172Z,26.97
2022-08-08T09:31:24.163Z,27.05
2022-08-08T09:32:31.041Z,27.15
2022-08-08T09:34:16.037Z,27.26
2022-08-08T09:34:32.303Z,27.05
2022-08-08T09:35:31.743Z,27.07
2022-08-08T09:36:24.109Z,27.12
2022-08-08T09:37:57.105Z,27.07
2022-08-08T09:38:25.090Z,27.11
2022-08-08T09:39:24.273Z,27.05
2022-08-08T09:40:44.089Z,27.21
2022-08-08T09:41:25.083Z,27.36
2022-08-08T09:42:26.027Z,27.45
2022-08-08T09:44:05.808Z,27.65
2022-08-08T09:44:29.709Z,27.78
2022-08-08T09:46:01.992Z,27.78
2022-08-08T09:46:25.538Z,27.93
2022-08-08T09:47:25.495Z,27.93
2022-08-08T09:48:29.026Z,27.89
2022-08-08T09:49:42.221Z,27.85
2022-08-08T09:50:24.956Z,27.65
2022-08-08T09:51:25.759Z,27.74
2022-08-08T09:52:53.888Z,27.82
2022-08-08T09:53:53.327Z,27.68
2022-08-08T09:54:37.065Z,27.49
2022-08-08T09:55:51.543Z,27.74
2022-08-08T09:56:27.753Z,27.92
2022-08-08T09:57:25.154Z,28.10
2022-08-08T09:58:27.685Z,28.14
2022-08-08T10:00:49.739Z,28.05
2022-08-08T10:02:01.945Z,28.01
2022-08-08T10:02:24.988Z,27.87
2022-08-08T10:03:23.837Z,27.90
2022-08-08T10:04:42.378Z,28.02
2022-08-08T10:05:25.456Z,28.07
2022-08-08T10:06:29.321Z,27.92
2022-08-08T10:07:23.852Z,27.55
2022-08-08T10:08:23.784Z,27.21
2022-08-08T10:09:23.770Z,27.10
2022-08-08T10:10:30.440Z,27.17
2022-08-08T10:12:28.215Z,27.36
2022-08-08T10:12:31.111Z,27.30
2022-08-08T10:13:32.661Z,27.25
2022-08-08T10:14:28.443Z,27.30
2022-08-08T10:15:24.172Z,27.37
2022-08-08T10:16:23.785Z,27.40
2022-08-08T10:17:38.647Z,27.39
2022-08-08T10:18:25.766Z,27.49
2022-08-08T10:19:23.660Z,27.64
2022-08-08T10:20:27.878Z,27.67
2022-08-08T10:21:25.921Z,27.48
2022-08-08T10:22:24.637Z,27.48
2022-08-08T10:23:41.950Z,27.49
2022-08-08T10:24:28.733Z,27.33
2022-08-08T10:25:26.593Z,27.49
2022-08-08T10:26:29.755Z,27.64
2022-08-08T10:27:24.584Z,27.68
2022-08-08T10:28:25.724Z,27.77
2022-08-08T10:29:24.925Z,27.68
2022-08-08T10:30:57.400Z,27.54
2022-08-08T10:31:46.982Z,27.60
2022-08-08T10:32:24.553Z,27.58
2022-08-08T10:33:23.539Z,27.59
2022-08-08T10:34:23.522Z,27.78
2022-08-08T10:36:07.138Z,27.89
2022-08-08T10:36:24.487Z,27.92
2022-08-08T10:37:23.489Z,27.86
2022-08-08T10:38:23.478Z,27.80
2022-08-08T10:39:31.757Z,27.85
2022-08-08T10:40:30.835Z,27.83
2022-08-08T10:41:23.458Z,27.82
2022-08-08T10:42:27.118Z,27.90
2022-08-08T10:43:23.446Z,27.96
2022-08-08T10:44:23.406Z,28.05
2022-08-08T10:45:23.397Z,28.08
2022-08-08T10:46:26.138Z,27.86
2022-08-08T10:47:23.383Z,27.80
2022-08-08T10:48:23.371Z,27.78
2022-08-08T10:49:26.800Z,27.77
2022-08-08T10:50:24.353Z,27.83
2022-08-08T10:51:24.201Z,27.90
2022-08-08T10:52:30.835Z,28.00
2022-08-08T10:53:56.842Z,27.96
2022-08-08T10:54:24.743Z,27.92
2022-08-08T10:55:39.335Z,28.02
2022-08-08T10:56:27.902Z,28.00
2022-08-08T10:57:33.317Z,28.08
2022-08-08T10:58:24.275Z,28.14
2022-08-08T10:59:23.253Z,28.08
2022-08-08T11:00:23.240Z,28.01
2022-08-08T11:01:23.330Z,27.90
2022-08-08T11:02:25.326Z,27.75
2022-08-08T11:03:52.390Z,27.67
2022-08-08T11:04:29.436Z,27.64
2022-08-08T11:05:24.207Z,27.77
2022-08-08T11:06:24.209Z,27.89
2022-08-08T11:08:31.458Z,28.02
2022-08-08T11:08:37.193Z,28.15
2022-08-08T11:09:24.167Z,28.17
2022-08-08T11:10:28.511Z,28.23
2022-08-08T11:11:32.431Z,28.37
2022-08-08T11:12:24.227Z,28.37
2022-08-08T11:13:28.733Z,28.32
2022-08-08T11:14:25.779Z,28.32
2022-08-08T11:15:23.102Z,28.37
2022-08-08T11:16:32.658Z,28.38
2022-08-08T11:18:01.379Z,28.33
2022-08-08T11:18:24.063Z,28.30
2022-08-08T11:19:23.054Z,28.37
2022-08-08T11:20:27.350Z,28.38
2022-08-08T11:21:23.027Z,28.49
2022-08-08T11:22:23.127Z,28.62
2022-08-08T11:23:23.004Z,28.54
2022-08-08T11:24:23.001Z,28.48
2022-08-08T11:25:51.779Z,28.30
2022-08-08T11:26:27.961Z,28.37
2022-08-08T11:27:23.386Z,28.48
2022-08-08T11:28:22.958Z,28.33
2022-08-08T11:29:22.950Z,28.14
2022-08-08T11:30:24.868Z,28.20
2022-08-08T11:31:22.938Z,28.37
2022-08-08T11:32:29.177Z,28.39
2022-08-08T11:33:22.899Z,28.27
2022-08-08T11:34:34.498Z,28.35
2022-08-08T11:35:43.367Z,28.49
2022-08-08T11:36:22.905Z,28.54
2022-08-08T11:38:35.601Z,28.59
2022-08-08T11:38:36.543Z,28.57
2022-08-08T11:39:22.860Z,28.54
2022-08-08T11:40:26.982Z,28.35
2022-08-08T11:41:22.993Z,28.30
2022-08-08T11:42:26.829Z,28.33
2022-08-08T11:43:23.613Z,28.35
2022-08-08T11:44:28.896Z,28.44
2022-08-08T11:45:22.836Z,28.57
2022-08-08T11:46:22.774Z,28.56
2022-08-08T11:47:22.777Z,28.48
2022-08-08T11:48:23.759Z,28.37
2022-08-08T11:49:22.951Z,28.30
2022-08-08T11:50:23.355Z,28.41
2022-08-08T11:51:39.256Z,28.45
2022-08-08T11:52:27.500Z,28.47
2022-08-08T11:53:24.319Z,28.62
2022-08-08T11:54:31.122Z,28.67
2022-08-08T11:55:25.681Z,28.66
2022-08-08T11:56:22.685Z,28.62
2022-08-08T11:57:27.414Z,28.74
2022-08-08T11:58:22.655Z,28.59
2022-08-08T11:59:57.937Z,28.47
2022-08-08T12:00:23.670Z,28.47
2022-08-08T12:01:22.639Z,28.48
2022-08-08T12:02:41.507Z,28.54
2022-08-08T12:03:23.652Z,28.48
2022-08-08T12:04:22.589Z,28.57
2022-08-08T12:05:24.804Z,28.48
2022-08-08T12:06:22.586Z,28.51
2022-08-08T12:07:22.563Z,28.54
2022-08-08T12:08:22.556Z,28.63
2022-08-08T12:09:22.545Z,28.67
2022-08-08T12:10:26.538Z,28.66
2022-08-08T12:11:26.819Z,28.66
2022-08-08T12:12:22.516Z,28.64
2022-08-08T12:13:37.818Z,28.62
2022-08-08T12:14:23.495Z,28.59
2022-08-08T12:15:22.488Z,28.47
2022-08-08T12:16:30.287Z,28.41
2022-08-08T12:17:23.458Z,28.47
2022-08-08T12:18:24.246Z,28.57
2022-08-08T12:19:37.394Z,28.72
2022-08-08T12:20:23.441Z,28.76
2022-08-08T12:21:25.746Z,28.74
2022-08-08T12:22:23.419Z,28.69
2022-08-08T12:23:30.470Z,28.67
2022-08-08T12:24:27.609Z,28.75
2022-08-08T12:25:29.722Z,28.75
2022-08-08T12:26:28.179Z,28.82
2022-08-08T12:27:22.361Z,28.88
2022-08-08T12:28:23.389Z,28.93
2022-08-08T12:29:22.345Z,28.76
2022-08-08T12:30:24.876Z,28.72
2022-08-08T12:31:22.330Z,28.64
2022-08-08T12:32:22.629Z,28.62
2022-08-08T12:33:22.357Z,28.63
2022-08-08T12:34:22.294Z,28.63
2022-08-08T12:35:22.295Z,28.54
2022-08-08T12:36:22.285Z,28.54
2022-08-08T12:37:22.271Z,28.64
2022-08-08T12:38:31.361Z,28.74
2022-08-08T12:39:22.265Z,28.81
2022-08-08T12:40:26.286Z,28.94
2022-08-08T12:41:34.951Z,28.98
2022-08-08T12:42:22.280Z,29.07
2022-08-08T12:43:22.201Z,28.94
2022-08-08T12:44:32.152Z,28.93
2022-08-08T12:45:58.580Z,28.96
2022-08-08T12:46:26.289Z,29.08
2022-08-08T12:47:43.388Z,29.19
2022-08-08T12:48:37.283Z,29.16
2022-08-08T12:49:43.653Z,29.04
2022-08-08T12:50:25.883Z,29.14
2022-08-08T12:51:22.167Z,29.22
2022-08-08T12:52:28.286Z,29.27